sensor_id;sensor_type;location;lat;lon;timestamp;P1;durP1;ratioP1;P2;durP2;ratioP2
43823;SDS011;29470;53.550;9.926;2023-04-15T00:02:04;7.03;;;4.32;;
43823;SDS011;29470;53.550;9.926;2023-04-15T00:07:15;5.90;;;3.83;;
43823;SDS011;29470;53.550;9.926;2023-04-15T00:12:20;6.95;;;4.32;;
43823;SDS011;29470;53.550;9.926;2023-04-15T00:17:23;6.97;;;4.40;;
43823;SDS011;29470;53.550;9.926;2023-04-15T00:22:26;6.80;;;4.18;;
43823;SDS011;29470;53.550;9.926;2023-04-15T00:27:30;6.88;;;4.10;;
43823;SDS011;29470;53.550;9.926;2023-04-15T00:32:33;7.65;;;4.38;;
43823;SDS011;29470;53.550;9.926;2023-04-15T00:37:36;8.32;;;4.40;;
43823;SDS011;29470;53.550;9.926;2023-04-15T00:42:40;7.85;;;4.22;;
43823;SDS011;29470;53.550;9.926;2023-04-15T00:47:43;5.95;;;3.88;;
43823;SDS011;29470;53.550;9.926;2023-04-15T00:52:47;7.47;;;4.20;;
43823;SDS011;29470;53.550;9.926;2023-04-15T00:57:51;8.30;;;4.35;;
43823;SDS011;29470;53.550;9.926;2023-04-15T01:02:54;7.28;;;4.03;;
43823;SDS011;29470;53.550;9.926;2023-04-15T01:07:57;7.72;;;4.63;;
43823;SDS011;29470;53.550;9.926;2023-04-15T01:13:01;8.23;;;4.40;;
43823;SDS011;29470;53.550;9.926;2023-04-15T01:18:04;9.40;;;5.40;;
43823;SDS011;29470;53.550;9.926;2023-04-15T01:23:07;7.93;;;4.97;;
43823;SDS011;29470;53.550;9.926;2023-04-15T01:28:12;9.73;;;5.43;;
43823;SDS011;29470;53.550;9.926;2023-04-15T01:33:15;9.18;;;5.20;;
43823;SDS011;29470;53.550;9.926;2023-04-15T01:38:19;8.88;;;4.95;;
43823;SDS011;29470;53.550;9.926;2023-04-15T01:43:24;10.98;;;5.55;;
43823;SDS011;29470;53.550;9.926;2023-04-15T01:48:27;10.05;;;5.57;;
43823;SDS011;29470;53.550;9.926;2023-04-15T01:53:30;9.93;;;5.55;;
43823;SDS011;29470;53.550;9.926;2023-04-15T01:58:35;11.02;;;5.57;;
43823;SDS011;29470;53.550;9.926;2023-04-15T02:03:37;11.55;;;5.82;;
43823;SDS011;29470;53.550;9.926;2023-04-15T02:08:41;10.38;;;5.55;;
43823;SDS011;29470;53.550;9.926;2023-04-15T02:13:45;8.80;;;5.50;;
43823;SDS011;29470;53.550;9.926;2023-04-15T02:18:48;9.60;;;5.55;;
43823;SDS011;29470;53.550;9.926;2023-04-15T02:23:52;10.88;;;6.25;;
43823;SDS011;29470;53.550;9.926;2023-04-15T02:28:56;10.93;;;6.43;;
43823;SDS011;29470;53.550;9.926;2023-04-15T02:33:59;9.98;;;6.32;;
43823;SDS011;29470;53.550;9.926;2023-04-15T02:39:04;10.80;;;6.28;;
43823;SDS011;29470;53.550;9.926;2023-04-15T02:44:09;11.20;;;6.68;;
43823;SDS011;29470;53.550;9.926;2023-04-15T02:49:13;12.18;;;6.80;;
43823;SDS011;29470;53.550;9.926;2023-04-15T02:54:16;12.05;;;6.47;;
43823;SDS011;29470;53.550;9.926;2023-04-15T02:59:20;13.85;;;7.05;;
43823;SDS011;29470;53.550;9.926;2023-04-15T03:04:23;12.82;;;6.45;;
43823;SDS011;29470;53.550;9.926;2023-04-15T03:09:26;12.45;;;7.15;;
43823;SDS011;29470;53.550;9.926;2023-04-15T03:14:31;13.63;;;7.03;;
43823;SDS011;29470;53.550;9.926;2023-04-15T03:19:34;12.23;;;7.05;;
43823;SDS011;29470;53.550;9.926;2023-04-15T03:24:37;12.85;;;6.70;;
43823;SDS011;29470;53.550;9.926;2023-04-15T03:29:41;13.80;;;7.50;;
43823;SDS011;29470;53.550;9.926;2023-04-15T03:34:45;15.18;;;7.55;;
43823;SDS011;29470;53.550;9.926;2023-04-15T03:39:47;13.85;;;7.57;;
43823;SDS011;29470;53.550;9.926;2023-04-15T03:44:52;16.00;;;7.72;;
43823;SDS011;29470;53.550;9.926;2023-04-15T03:49:54;16.17;;;8.55;;
43823;SDS011;29470;53.550;9.926;2023-04-15T03:54:57;18.17;;;8.60;;
43823;SDS011;29470;53.550;9.926;2023-04-15T04:00:01;18.13;;;8.88;;
43823;SDS011;29470;53.550;9.926;2023-04-15T04:05:12;17.80;;;9.13;;
43823;SDS011;29470;53.550;9.926;2023-04-15T04:10:14;20.33;;;10.32;;
43823;SDS011;29470;53.550;9.926;2023-04-15T04:15:19;17.75;;;9.82;;
43823;SDS011;29470;53.550;9.926;2023-04-15T04:20:22;19.35;;;9.82;;
43823;SDS011;29470;53.550;9.926;2023-04-15T04:25:25;20.70;;;10.68;;
43823;SDS011;29470;53.550;9.926;2023-04-15T04:30:29;20.25;;;10.10;;
43823;SDS011;29470;53.550;9.926;2023-04-15T04:35:31;22.60;;;11.20;;
43823;SDS011;29470;53.550;9.926;2023-04-15T04:40:37;23.67;;;11.45;;
43823;SDS011;29470;53.550;9.926;2023-04-15T04:45:42;22.90;;;11.80;;
43823;SDS011;29470;53.550;9.926;2023-04-15T04:50:44;25.35;;;12.55;;
43823;SDS011;29470;53.550;9.926;2023-04-15T04:55:48;24.10;;;12.10;;
43823;SDS011;29470;53.550;9.926;2023-04-15T05:00:52;24.55;;;12.55;;
43823;SDS011;29470;53.550;9.926;2023-04-15T05:05:55;26.08;;;13.18;;
43823;SDS011;29470;53.550;9.926;2023-04-15T05:10:58;24.92;;;13.55;;
43823;SDS011;29470;53.550;9.926;2023-04-15T05:16:02;29.52;;;14.52;;
43823;SDS011;29470;53.550;9.926;2023-04-15T05:21:06;29.23;;;13.93;;
43823;SDS011;29470;53.550;9.926;2023-04-15T05:26:09;32.38;;;14.85;;
43823;SDS011;29470;53.550;9.926;2023-04-15T05:31:13;31.13;;;15.38;;
43823;SDS011;29470;53.550;9.926;2023-04-15T05:36:16;32.55;;;15.85;;
43823;SDS011;29470;53.550;9.926;2023-04-15T05:41:19;31.25;;;14.70;;
43823;SDS011;29470;53.550;9.926;2023-04-15T05:46:23;31.63;;;15.18;;
43823;SDS011;29470;53.550;9.926;2023-04-15T05:51:26;33.92;;;16.55;;
43823;SDS011;29470;53.550;9.926;2023-04-15T05:56:29;32.85;;;16.08;;
43823;SDS011;29470;53.550;9.926;2023-04-15T06:01:33;34.25;;;17.02;;
43823;SDS011;29470;53.550;9.926;2023-04-15T06:06:36;35.65;;;17.33;;
43823;SDS011;29470;53.550;9.926;2023-04-15T06:11:39;35.60;;;17.35;;
43823;SDS011;29470;53.550;9.926;2023-04-15T06:16:44;33.10;;;16.08;;
43823;SDS011;29470;53.550;9.926;2023-04-15T06:21:47;33.47;;;16.67;;
43823;SDS011;29470;53.550;9.926;2023-04-15T06:26:51;34.70;;;17.42;;
43823;SDS011;29470;53.550;9.926;2023-04-15T06:31:55;33.47;;;17.55;;
43823;SDS011;29470;53.550;9.926;2023-04-15T06:36:58;39.05;;;18.50;;
43823;SDS011;29470;53.550;9.926;2023-04-15T06:42:01;42.00;;;20.13;;
43823;SDS011;29470;53.550;9.926;2023-04-15T06:47:06;41.88;;;19.25;;
43823;SDS011;29470;53.550;9.926;2023-04-15T06:52:09;41.95;;;20.20;;
43823;SDS011;29470;53.550;9.926;2023-04-15T06:57:12;41.72;;;21.00;;
43823;SDS011;29470;53.550;9.926;2023-04-15T07:02:17;43.00;;;22.08;;
43823;SDS011;29470;53.550;9.926;2023-04-15T07:07:20;44.33;;;21.75;;
43823;SDS011;29470;53.550;9.926;2023-04-15T07:12:22;47.30;;;23.13;;
43823;SDS011;29470;53.550;9.926;2023-04-15T07:17:27;50.13;;;24.08;;
43823;SDS011;29470;53.550;9.926;2023-04-15T07:22:29;53.22;;;24.92;;
43823;SDS011;29470;53.550;9.926;2023-04-15T07:27:32;52.83;;;26.10;;
43823;SDS011;29470;53.550;9.926;2023-04-15T07:32:39;51.47;;;24.90;;
43823;SDS011;29470;53.550;9.926;2023-04-15T07:37:43;54.97;;;25.63;;
43823;SDS011;29470;53.550;9.926;2023-04-15T07:42:48;51.90;;;25.90;;
43823;SDS011;29470;53.550;9.926;2023-04-15T07:47:58;53.03;;;26.08;;
43823;SDS011;29470;53.550;9.926;2023-04-15T07:53:02;56.88;;;26.45;;
43823;SDS011;29470;53.550;9.926;2023-04-15T07:58:05;54.40;;;27.27;;
43823;SDS011;29470;53.550;9.926;2023-04-15T08:03:10;53.55;;;24.80;;
43823;SDS011;29470;53.550;9.926;2023-04-15T08:08:13;50.90;;;24.35;;
43823;SDS011;29470;53.550;9.926;2023-04-15T08:13:16;52.58;;;25.17;;
43823;SDS011;29470;53.550;9.926;2023-04-15T08:18:20;52.35;;;25.65;;
43823;SDS011;29470;53.550;9.926;2023-04-15T08:23:23;52.75;;;25.95;;
43823;SDS011;29470;53.550;9.926;2023-04-15T08:28:26;55.17;;;26.67;;
43823;SDS011;29470;53.550;9.926;2023-04-15T08:33:30;58.17;;;27.30;;
43823;SDS011;29470;53.550;9.926;2023-04-15T08:38:35;50.65;;;24.88;;
43823;SDS011;29470;53.550;9.926;2023-04-15T08:43:39;54.22;;;26.27;;
43823;SDS011;29470;53.550;9.926;2023-04-15T08:48:49;51.60;;;25.38;;
43823;SDS011;29470;53.550;9.926;2023-04-15T08:53:52;50.50;;;25.52;;
43823;SDS011;29470;53.550;9.926;2023-04-15T08:58:56;49.60;;;24.88;;
43823;SDS011;29470;53.550;9.926;2023-04-15T09:04:00;48.78;;;23.77;;
43823;SDS011;29470;53.550;9.926;2023-04-15T09:09:06;46.60;;;24.17;;
43823;SDS011;29470;53.550;9.926;2023-04-15T09:14:09;47.80;;;24.35;;
43823;SDS011;29470;53.550;9.926;2023-04-15T09:19:21;49.22;;;25.08;;
43823;SDS011;29470;53.550;9.926;2023-04-15T09:24:25;55.00;;;25.05;;
43823;SDS011;29470;53.550;9.926;2023-04-15T09:29:37;47.15;;;24.10;;
43823;SDS011;29470;53.550;9.926;2023-04-15T09:34:44;49.70;;;24.27;;
43823;SDS011;29470;53.550;9.926;2023-04-15T09:39:49;51.33;;;24.85;;
43823;SDS011;29470;53.550;9.926;2023-04-15T09:44:53;43.67;;;23.45;;
43823;SDS011;29470;53.550;9.926;2023-04-15T09:49:57;44.05;;;21.83;;
43823;SDS011;29470;53.550;9.926;2023-04-15T09:55:01;39.53;;;21.63;;
43823;SDS011;29470;53.550;9.926;2023-04-15T10:00:05;40.78;;;22.70;;
43823;SDS011;29470;53.550;9.926;2023-04-15T10:05:13;40.05;;;22.30;;
43823;SDS011;29470;53.550;9.926;2023-04-15T10:10:16;40.55;;;21.77;;
43823;SDS011;29470;53.550;9.926;2023-04-15T10:15:19;40.13;;;21.60;;
43823;SDS011;29470;53.550;9.926;2023-04-15T10:20:25;37.08;;;21.40;;
43823;SDS011;29470;53.550;9.926;2023-04-15T10:25:29;39.00;;;21.23;;
43823;SDS011;29470;53.550;9.926;2023-04-15T10:30:37;37.05;;;20.80;;
43823;SDS011;29470;53.550;9.926;2023-04-15T10:35:42;35.85;;;20.02;;
43823;SDS011;29470;53.550;9.926;2023-04-15T10:40:47;30.88;;;18.75;;
43823;SDS011;29470;53.550;9.926;2023-04-15T10:45:52;34.17;;;20.23;;
43823;SDS011;29470;53.550;9.926;2023-04-15T10:50:57;32.58;;;19.55;;
43823;SDS011;29470;53.550;9.926;2023-04-15T10:56:03;35.55;;;18.65;;
43823;SDS011;29470;53.550;9.926;2023-04-15T11:01:06;32.78;;;18.20;;
43823;SDS011;29470;53.550;9.926;2023-04-15T11:06:10;32.08;;;19.38;;
43823;SDS011;29470;53.550;9.926;2023-04-15T11:11:13;27.35;;;17.25;;
43823;SDS011;29470;53.550;9.926;2023-04-15T11:16:16;24.85;;;14.80;;
43823;SDS011;29470;53.550;9.926;2023-04-15T11:21:20;23.33;;;14.35;;
43823;SDS011;29470;53.550;9.926;2023-04-15T11:26:26;15.05;;;11.13;;
43823;SDS011;29470;53.550;9.926;2023-04-15T11:31:29;16.92;;;11.10;;
43823;SDS011;29470;53.550;9.926;2023-04-15T11:36:34;17.02;;;11.30;;
43823;SDS011;29470;53.550;9.926;2023-04-15T11:41:37;17.00;;;10.93;;
43823;SDS011;29470;53.550;9.926;2023-04-15T11:46:39;18.67;;;10.68;;
43823;SDS011;29470;53.550;9.926;2023-04-15T11:51:46;19.08;;;10.45;;
43823;SDS011;29470;53.550;9.926;2023-04-15T11:56:49;15.57;;;10.18;;
43823;SDS011;29470;53.550;9.926;2023-04-15T12:01:53;16.23;;;10.30;;
43823;SDS011;29470;53.550;9.926;2023-04-15T12:06:57;17.75;;;10.65;;
43823;SDS011;29470;53.550;9.926;2023-04-15T12:12:06;12.50;;;9.20;;
43823;SDS011;29470;53.550;9.926;2023-04-15T12:17:11;14.73;;;10.57;;
43823;SDS011;29470;53.550;9.926;2023-04-15T12:22:15;15.50;;;10.05;;
43823;SDS011;29470;53.550;9.926;2023-04-15T12:27:20;15.35;;;10.45;;
43823;SDS011;29470;53.550;9.926;2023-04-15T12:32:23;13.05;;;10.05;;
43823;SDS011;29470;53.550;9.926;2023-04-15T12:37:27;14.90;;;9.65;;
43823;SDS011;29470;53.550;9.926;2023-04-15T12:42:30;15.80;;;10.15;;
43823;SDS011;29470;53.550;9.926;2023-04-15T12:47:32;16.00;;;9.60;;
43823;SDS011;29470;53.550;9.926;2023-04-15T12:52:37;14.20;;;9.82;;
43823;SDS011;29470;53.550;9.926;2023-04-15T12:57:39;14.65;;;9.75;;
43823;SDS011;29470;53.550;9.926;2023-04-15T13:02:42;14.40;;;9.40;;
43823;SDS011;29470;53.550;9.926;2023-04-15T13:07:47;13.73;;;9.75;;
43823;SDS011;29470;53.550;9.926;2023-04-15T13:12:50;17.08;;;10.63;;
43823;SDS011;29470;53.550;9.926;2023-04-15T13:17:53;13.88;;;9.93;;
43823;SDS011;29470;53.550;9.926;2023-04-15T13:22:58;17.10;;;9.73;;
43823;SDS011;29470;53.550;9.926;2023-04-15T13:28:01;16.63;;;10.50;;
43823;SDS011;29470;53.550;9.926;2023-04-15T13:33:06;15.25;;;9.55;;
43823;SDS011;29470;53.550;9.926;2023-04-15T13:38:10;15.07;;;9.45;;
43823;SDS011;29470;53.550;9.926;2023-04-15T13:43:13;12.48;;;8.60;;
43823;SDS011;29470;53.550;9.926;2023-04-15T13:48:16;12.18;;;9.00;;
43823;SDS011;29470;53.550;9.926;2023-04-15T13:53:20;14.80;;;9.98;;
43823;SDS011;29470;53.550;9.926;2023-04-15T13:58:39;13.80;;;9.23;;
43823;SDS011;29470;53.550;9.926;2023-04-15T14:03:42;14.23;;;9.40;;
43823;SDS011;29470;53.550;9.926;2023-04-15T14:08:46;11.38;;;8.68;;
43823;SDS011;29470;53.550;9.926;2023-04-15T14:13:50;13.63;;;8.32;;
43823;SDS011;29470;53.550;9.926;2023-04-15T14:18:53;11.18;;;7.95;;
43823;SDS011;29470;53.550;9.926;2023-04-15T14:23:57;10.77;;;7.50;;
43823;SDS011;29470;53.550;9.926;2023-04-15T14:29:00;11.98;;;7.82;;
43823;SDS011;29470;53.550;9.926;2023-04-15T14:34:03;12.52;;;8.48;;
43823;SDS011;29470;53.550;9.926;2023-04-15T14:39:08;11.40;;;8.05;;
43823;SDS011;29470;53.550;9.926;2023-04-15T14:44:11;12.90;;;8.25;;
43823;SDS011;29470;53.550;9.926;2023-04-15T14:49:14;12.38;;;7.95;;
43823;SDS011;29470;53.550;9.926;2023-04-15T14:54:18;13.70;;;8.65;;
43823;SDS011;29470;53.550;9.926;2023-04-15T14:59:22;13.60;;;8.15;;
43823;SDS011;29470;53.550;9.926;2023-04-15T15:04:25;10.32;;;8.07;;
43823;SDS011;29470;53.550;9.926;2023-04-15T15:09:30;10.55;;;7.25;;
43823;SDS011;29470;53.550;9.926;2023-04-15T15:14:35;11.18;;;7.38;;
43823;SDS011;29470;53.550;9.926;2023-04-15T15:19:38;11.95;;;8.57;;
43823;SDS011;29470;53.550;9.926;2023-04-15T15:24:42;13.25;;;8.23;;
43823;SDS011;29470;53.550;9.926;2023-04-15T15:29:45;11.63;;;8.13;;
43823;SDS011;29470;53.550;9.926;2023-04-15T15:34:47;10.63;;;7.68;;
43823;SDS011;29470;53.550;9.926;2023-04-15T15:39:52;15.55;;;9.50;;
43823;SDS011;29470;53.550;9.926;2023-04-15T15:44:54;13.38;;;8.98;;
43823;SDS011;29470;53.550;9.926;2023-04-15T15:49:57;12.48;;;8.02;;
43823;SDS011;29470;53.550;9.926;2023-04-15T15:55:05;11.40;;;8.35;;
43823;SDS011;29470;53.550;9.926;2023-04-15T16:00:09;14.27;;;9.02;;
43823;SDS011;29470;53.550;9.926;2023-04-15T16:05:16;12.25;;;9.20;;
43823;SDS011;29470;53.550;9.926;2023-04-15T16:10:25;11.95;;;9.00;;
43823;SDS011;29470;53.550;9.926;2023-04-15T16:15:28;16.65;;;9.65;;
43823;SDS011;29470;53.550;9.926;2023-04-15T16:20:30;13.90;;;9.30;;
43823;SDS011;29470;53.550;9.926;2023-04-15T16:25:34;13.73;;;9.60;;
43823;SDS011;29470;53.550;9.926;2023-04-15T16:30:37;15.50;;;9.75;;
43823;SDS011;29470;53.550;9.926;2023-04-15T16:35:41;13.40;;;9.70;;
43823;SDS011;29470;53.550;9.926;2023-04-15T16:40:46;17.50;;;10.27;;
43823;SDS011;29470;53.550;9.926;2023-04-15T16:45:48;16.83;;;11.20;;
43823;SDS011;29470;53.550;9.926;2023-04-15T16:50:52;16.52;;;11.52;;
43823;SDS011;29470;53.550;9.926;2023-04-15T16:55:56;17.40;;;11.90;;
43823;SDS011;29470;53.550;9.926;2023-04-15T17:00:59;18.27;;;12.27;;
43823;SDS011;29470;53.550;9.926;2023-04-15T17:06:02;19.23;;;13.15;;
43823;SDS011;29470;53.550;9.926;2023-04-15T17:11:07;19.30;;;13.43;;
43823;SDS011;29470;53.550;9.926;2023-04-15T17:16:10;20.35;;;13.70;;
43823;SDS011;29470;53.550;9.926;2023-04-15T17:21:13;19.85;;;13.70;;
43823;SDS011;29470;53.550;9.926;2023-04-15T17:26:18;19.63;;;13.50;;
43823;SDS011;29470;53.550;9.926;2023-04-15T17:31:22;20.98;;;13.88;;
43823;SDS011;29470;53.550;9.926;2023-04-15T17:36:25;20.65;;;14.50;;
43823;SDS011;29470;53.550;9.926;2023-04-15T17:41:29;25.92;;;14.77;;
43823;SDS011;29470;53.550;9.926;2023-04-15T17:46:32;22.10;;;14.75;;
43823;SDS011;29470;53.550;9.926;2023-04-15T17:51:35;25.42;;;15.43;;
43823;SDS011;29470;53.550;9.926;2023-04-15T17:56:42;21.52;;;14.98;;
43823;SDS011;29470;53.550;9.926;2023-04-15T18:01:45;21.30;;;14.43;;
43823;SDS011;29470;53.550;9.926;2023-04-15T18:06:47;22.33;;;14.48;;
43823;SDS011;29470;53.550;9.926;2023-04-15T18:11:52;23.67;;;14.85;;
43823;SDS011;29470;53.550;9.926;2023-04-15T18:16:54;22.45;;;14.98;;
43823;SDS011;29470;53.550;9.926;2023-04-15T18:21:57;22.80;;;14.70;;
43823;SDS011;29470;53.550;9.926;2023-04-15T18:27:02;24.98;;;15.55;;
43823;SDS011;29470;53.550;9.926;2023-04-15T18:32:05;26.60;;;15.55;;
43823;SDS011;29470;53.550;9.926;2023-04-15T18:37:08;24.25;;;16.27;;
43823;SDS011;29470;53.550;9.926;2023-04-15T18:42:12;28.40;;;16.70;;
43823;SDS011;29470;53.550;9.926;2023-04-15T18:47:15;25.52;;;16.35;;
43823;SDS011;29470;53.550;9.926;2023-04-15T18:52:18;25.70;;;16.73;;
43823;SDS011;29470;53.550;9.926;2023-04-15T18:57:23;26.25;;;15.23;;
43823;SDS011;29470;53.550;9.926;2023-04-15T19:02:35;30.55;;;16.10;;
43823;SDS011;29470;53.550;9.926;2023-04-15T19:07:38;24.98;;;15.65;;
43823;SDS011;29470;53.550;9.926;2023-04-15T19:12:42;26.15;;;15.63;;
43823;SDS011;29470;53.550;9.926;2023-04-15T19:17:45;22.65;;;15.15;;
43823;SDS011;29470;53.550;9.926;2023-04-15T19:22:48;29.58;;;16.52;;
43823;SDS011;29470;53.550;9.926;2023-04-15T19:27:52;30.20;;;16.55;;
43823;SDS011;29470;53.550;9.926;2023-04-15T19:32:55;28.58;;;15.45;;
43823;SDS011;29470;53.550;9.926;2023-04-15T19:37:58;23.98;;;14.85;;
43823;SDS011;29470;53.550;9.926;2023-04-15T19:43:02;26.35;;;14.73;;
43823;SDS011;29470;53.550;9.926;2023-04-15T19:48:06;27.05;;;14.98;;
43823;SDS011;29470;53.550;9.926;2023-04-15T19:53:09;26.95;;;14.82;;
43823;SDS011;29470;53.550;9.926;2023-04-15T19:58:13;23.08;;;14.63;;
43823;SDS011;29470;53.550;9.926;2023-04-15T20:03:16;26.30;;;14.38;;
43823;SDS011;29470;53.550;9.926;2023-04-15T20:08:19;24.63;;;15.13;;
43823;SDS011;29470;53.550;9.926;2023-04-15T20:13:23;28.58;;;15.25;;
43823;SDS011;29470;53.550;9.926;2023-04-15T20:18:27;21.70;;;13.70;;
43823;SDS011;29470;53.550;9.926;2023-04-15T20:23:29;25.05;;;14.52;;
43823;SDS011;29470;53.550;9.926;2023-04-15T20:28:34;25.80;;;14.30;;
43823;SDS011;29470;53.550;9.926;2023-04-15T20:33:37;22.67;;;13.80;;
43823;SDS011;29470;53.550;9.926;2023-04-15T20:38:39;27.00;;;14.70;;
43823;SDS011;29470;53.550;9.926;2023-04-15T20:43:44;26.40;;;14.75;;
43823;SDS011;29470;53.550;9.926;2023-04-15T20:48:46;23.42;;;14.38;;
43823;SDS011;29470;53.550;9.926;2023-04-15T20:53:49;24.83;;;14.65;;
43823;SDS011;29470;53.550;9.926;2023-04-15T20:58:54;25.00;;;14.35;;
43823;SDS011;29470;53.550;9.926;2023-04-15T21:03:57;26.60;;;15.20;;
43823;SDS011;29470;53.550;9.926;2023-04-15T21:09:00;25.75;;;15.43;;
43823;SDS011;29470;53.550;9.926;2023-04-15T21:14:06;27.13;;;15.40;;
43823;SDS011;29470;53.550;9.926;2023-04-15T21:19:09;28.13;;;15.82;;
43823;SDS011;29470;53.550;9.926;2023-04-15T21:24:12;29.27;;;15.60;;
43823;SDS011;29470;53.550;9.926;2023-04-15T21:29:16;28.92;;;15.40;;
43823;SDS011;29470;53.550;9.926;2023-04-15T21:34:19;28.83;;;16.05;;
43823;SDS011;29470;53.550;9.926;2023-04-15T21:39:21;28.13;;;15.30;;
43823;SDS011;29470;53.550;9.926;2023-04-15T21:44:26;26.70;;;16.65;;
43823;SDS011;29470;53.550;9.926;2023-04-15T21:49:29;26.42;;;14.90;;
43823;SDS011;29470;53.550;9.926;2023-04-15T21:54:32;27.40;;;16.17;;
43823;SDS011;29470;53.550;9.926;2023-04-15T21:59:38;28.42;;;15.63;;
43823;SDS011;29470;53.550;9.926;2023-04-15T22:04:42;27.67;;;15.73;;
43823;SDS011;29470;53.550;9.926;2023-04-15T22:09:44;27.02;;;15.45;;
43823;SDS011;29470;53.550;9.926;2023-04-15T22:14:49;25.23;;;15.05;;
43823;SDS011;29470;53.550;9.926;2023-04-15T22:19:51;27.52;;;16.30;;
43823;SDS011;29470;53.550;9.926;2023-04-15T22:24:54;27.30;;;14.45;;
43823;SDS011;29470;53.550;9.926;2023-04-15T22:29:58;29.00;;;15.45;;
43823;SDS011;29470;53.550;9.926;2023-04-15T22:35:01;28.00;;;16.65;;
43823;SDS011;29470;53.550;9.926;2023-04-15T22:40:06;30.88;;;16.25;;
43823;SDS011;29470;53.550;9.926;2023-04-15T22:45:11;29.20;;;17.35;;
43823;SDS011;29470;53.550;9.926;2023-04-15T22:50:14;31.95;;;15.90;;
43823;SDS011;29470;53.550;9.926;2023-04-15T22:55:17;30.23;;;16.45;;
43823;SDS011;29470;53.550;9.926;2023-04-15T23:00:21;31.65;;;15.95;;
43823;SDS011;29470;53.550;9.926;2023-04-15T23:05:24;28.48;;;15.32;;
43823;SDS011;29470;53.550;9.926;2023-04-15T23:10:27;28.40;;;16.77;;
43823;SDS011;29470;53.550;9.926;2023-04-15T23:15:31;26.48;;;15.50;;
43823;SDS011;29470;53.550;9.926;2023-04-15T23:20:34;30.48;;;16.27;;
43823;SDS011;29470;53.550;9.926;2023-04-15T23:25:37;33.97;;;17.58;;
43823;SDS011;29470;53.550;9.926;2023-04-15T23:30:41;30.17;;;16.45;;
43823;SDS011;29470;53.550;9.926;2023-04-15T23:35:44;31.42;;;16.27;;
43823;SDS011;29470;53.550;9.926;2023-04-15T23:40:47;30.40;;;16.85;;
43823;SDS011;29470;53.550;9.926;2023-04-15T23:45:51;29.48;;;16.83;;
43823;SDS011;29470;53.550;9.926;2023-04-15T23:50:54;32.17;;;17.85;;
43823;SDS011;29470;53.550;9.926;2023-04-15T23:55:57;32.92;;;17.40;;
